sensor_id;sensor_type;location;lat;lon;timestamp;pressure;altitude;pressure_sealevel;temperature;humidity
75051;BME280;63628;47.656;11.310;2023-05-10T00:01:39;94277.81;;;17.03;70.68
75051;BME280;63628;47.656;11.310;2023-05-10T00:04:06;94279.25;;;16.95;70.83
75051;BME280;63628;47.656;11.310;2023-05-10T00:06:34;94280.59;;;16.93;71.04
75051;BME280;63628;47.656;11.310;2023-05-10T00:09:00;94275.53;;;16.91;71.02
75051;BME280;63628;47.656;11.310;2023-05-10T00:11:27;94282.47;;;16.92;71.04
75051;BME280;63628;47.656;11.310;2023-05-10T00:13:55;94285.16;;;16.92;71.16
75051;BME280;63628;47.656;11.310;2023-05-10T00:16:21;94294.59;;;15.28;76.16
75051;BME280;63628;47.656;11.310;2023-05-10T00:18:48;94282.75;;;16.62;72.08
75051;BME280;63628;47.656;11.310;2023-05-10T00:21:15;94279.34;;;15.88;70.74
75051;BME280;63628;47.656;11.310;2023-05-10T00:23:41;94291.25;;;14.97;74.44
75051;BME280;63628;47.656;11.310;2023-05-10T00:26:08;94284.88;;;14.78;79.51
75051;BME280;63628;47.656;11.310;2023-05-10T00:28:34;94285.91;;;16.40;72.97
75051;BME280;63628;47.656;11.310;2023-05-10T00:31:03;94276.81;;;16.70;71.67
75051;BME280;63628;47.656;11.310;2023-05-10T00:33:29;94275.13;;;16.79;71.34
75051;BME280;63628;47.656;11.310;2023-05-10T00:35:56;94269.25;;;16.77;71.29
75051;BME280;63628;47.656;11.310;2023-05-10T00:38:23;94277.00;;;16.78;71.21
75051;BME280;63628;47.656;11.310;2023-05-10T00:40:50;94276.19;;;16.78;71.23
75051;BME280;63628;47.656;11.310;2023-05-10T00:43:16;94271.75;;;16.68;71.58
75051;BME280;63628;47.656;11.310;2023-05-10T00:45:43;94271.41;;;16.75;71.37
75051;BME280;63628;47.656;11.310;2023-05-10T00:48:12;94275.34;;;14.62;76.67
75051;BME280;63628;47.656;11.310;2023-05-10T00:50:39;94268.00;;;16.06;73.91
75051;BME280;63628;47.656;11.310;2023-05-10T00:53:07;94263.59;;;16.55;72.14
75051;BME280;63628;47.656;11.310;2023-05-10T00:55:34;94266.16;;;16.65;71.37
75051;BME280;63628;47.656;11.310;2023-05-10T00:58:00;94263.22;;;16.66;71.39
75051;BME280;63628;47.656;11.310;2023-05-10T01:00:27;94253.28;;;16.72;70.91
75051;BME280;63628;47.656;11.310;2023-05-10T01:02:55;94252.19;;;16.73;70.91
75051;BME280;63628;47.656;11.310;2023-05-10T01:05:24;94253.00;;;16.73;71.41
75051;BME280;63628;47.656;11.310;2023-05-10T01:07:51;94255.16;;;16.71;71.26
75051;BME280;63628;47.656;11.310;2023-05-10T01:10:18;94258.63;;;16.72;70.82
75051;BME280;63628;47.656;11.310;2023-05-10T01:12:46;94253.56;;;16.70;70.89
75051;BME280;63628;47.656;11.310;2023-05-10T01:15:14;94247.94;;;16.72;70.87
75051;BME280;63628;47.656;11.310;2023-05-10T01:17:43;94253.88;;;16.64;71.06
75051;BME280;63628;47.656;11.310;2023-05-10T01:20:12;94245.03;;;16.68;71.03
75051;BME280;63628;47.656;11.310;2023-05-10T01:23:10;94241.50;;;16.73;71.08
75051;BME280;63628;47.656;11.310;2023-05-10T01:28:55;94248.00;;;16.67;70.84
75051;BME280;63628;47.656;11.310;2023-05-10T01:34:16;94246.69;;;16.59;71.29
75051;BME280;63628;47.656;11.310;2023-05-10T01:36:52;94239.47;;;16.60;71.13
75051;BME280;63628;47.656;11.310;2023-05-10T01:39:24;94234.09;;;16.65;70.81
75051;BME280;63628;47.656;11.310;2023-05-10T01:41:55;94238.69;;;16.59;70.99
75051;BME280;63628;47.656;11.310;2023-05-10T01:44:29;94239.47;;;16.60;71.12
75051;BME280;63628;47.656;11.310;2023-05-10T01:46:59;94240.03;;;16.57;71.18
75051;BME280;63628;47.656;11.310;2023-05-10T01:49:34;94234.09;;;16.07;69.59
75051;BME280;63628;47.656;11.310;2023-05-10T01:52:06;94238.00;;;16.48;70.96
75051;BME280;63628;47.656;11.310;2023-05-10T01:54:35;94238.97;;;16.58;70.94
75051;BME280;63628;47.656;11.310;2023-05-10T01:57:06;94247.31;;;16.22;68.43
75051;BME280;63628;47.656;11.310;2023-05-10T01:59:34;94241.22;;;16.45;71.42
75051;BME280;63628;47.656;11.310;2023-05-10T02:02:04;94244.03;;;16.59;70.56
75051;BME280;63628;47.656;11.310;2023-05-10T02:04:35;94251.25;;;16.59;70.28
75051;BME280;63628;47.656;11.310;2023-05-10T02:07:05;94242.94;;;16.60;70.53
75051;BME280;63628;47.656;11.310;2023-05-10T02:09:33;94247.00;;;16.58;70.57
75051;BME280;63628;47.656;11.310;2023-05-10T02:12:02;94253.69;;;16.55;70.37
75051;BME280;63628;47.656;11.310;2023-05-10T02:14:32;94242.72;;;16.57;70.53
75051;BME280;63628;47.656;11.310;2023-05-10T02:17:02;94250.56;;;16.48;71.12
75051;BME280;63628;47.656;11.310;2023-05-10T02:19:30;94253.47;;;16.52;70.71
75051;BME280;63628;47.656;11.310;2023-05-10T02:22:00;94254.78;;;16.54;70.81
75051;BME280;63628;47.656;11.310;2023-05-10T02:24:28;94255.63;;;16.49;70.80
75051;BME280;63628;47.656;11.310;2023-05-10T02:26:56;94259.38;;;16.48;70.89
75051;BME280;63628;47.656;11.310;2023-05-10T02:29:25;94255.63;;;16.15;68.45
75051;BME280;63628;47.656;11.310;2023-05-10T02:31:54;94258.38;;;16.39;70.77
75051;BME280;63628;47.656;11.310;2023-05-10T02:34:23;94249.00;;;16.42;70.87
75051;BME280;63628;47.656;11.310;2023-05-10T02:36:52;94256.69;;;16.48;70.61
75051;BME280;63628;47.656;11.310;2023-05-10T02:39:21;94259.09;;;16.50;70.64
75051;BME280;63628;47.656;11.310;2023-05-10T02:41:49;94261.56;;;16.41;71.07
75051;BME280;63628;47.656;11.310;2023-05-10T02:44:18;94273.34;;;16.40;70.68
75051;BME280;63628;47.656;11.310;2023-05-10T02:46:46;94273.56;;;16.44;70.75
75051;BME280;63628;47.656;11.310;2023-05-10T02:49:13;94270.44;;;16.37;71.04
75051;BME280;63628;47.656;11.310;2023-05-10T02:51:43;94274.38;;;16.44;70.30
75051;BME280;63628;47.656;11.310;2023-05-10T02:54:12;94269.31;;;16.43;70.27
75051;BME280;63628;47.656;11.310;2023-05-10T02:56:44;94278.41;;;16.42;70.53
75051;BME280;63628;47.656;11.310;2023-05-10T02:59:13;94286.72;;;16.35;70.95
75051;BME280;63628;47.656;11.310;2023-05-10T03:01:40;94282.72;;;16.38;69.57
75051;BME280;63628;47.656;11.310;2023-05-10T03:04:07;94286.19;;;16.38;70.36
75051;BME280;63628;47.656;11.310;2023-05-10T03:06:34;94288.09;;;16.33;70.92
75051;BME280;63628;47.656;11.310;2023-05-10T03:09:01;94284.66;;;15.39;74.36
75051;BME280;63628;47.656;11.310;2023-05-10T03:11:39;94280.97;;;16.18;71.61
75051;BME280;63628;47.656;11.310;2023-05-10T03:14:16;94272.94;;;16.23;70.91
75051;BME280;63628;47.656;11.310;2023-05-10T03:16:52;94284.66;;;14.39;75.40
75051;BME280;63628;47.656;11.310;2023-05-10T03:19:25;94283.56;;;15.45;74.41
75051;BME280;63628;47.656;11.310;2023-05-10T03:21:53;94283.22;;;16.06;71.75
75051;BME280;63628;47.656;11.310;2023-05-10T03:24:23;94292.97;;;16.21;71.17
75051;BME280;63628;47.656;11.310;2023-05-10T03:26:55;94290.59;;;16.19;71.07
75051;BME280;63628;47.656;11.310;2023-05-10T03:29:24;94288.06;;;14.80;74.01
75051;BME280;63628;47.656;11.310;2023-05-10T03:31:52;94284.13;;;13.71;78.66
75051;BME280;63628;47.656;11.310;2023-05-10T03:34:23;94285.38;;;13.48;82.87
75051;BME280;63628;47.656;11.310;2023-05-10T03:36:50;94281.16;;;15.43;74.06
75051;BME280;63628;47.656;11.310;2023-05-10T03:39:17;94285.16;;;15.95;71.81
75051;BME280;63628;47.656;11.310;2023-05-10T03:41:43;94288.84;;;16.04;71.32
75051;BME280;63628;47.656;11.310;2023-05-10T03:44:10;94288.00;;;16.09;71.02
75051;BME280;63628;47.656;11.310;2023-05-10T03:46:38;94295.72;;;16.10;71.20
75051;BME280;63628;47.656;11.310;2023-05-10T03:49:04;94301.03;;;16.15;70.46
75051;BME280;63628;47.656;11.310;2023-05-10T03:51:31;94302.66;;;16.11;71.10
75051;BME280;63628;47.656;11.310;2023-05-10T03:53:58;94298.13;;;16.12;70.70
75051;BME280;63628;47.656;11.310;2023-05-10T03:56:25;94301.88;;;16.11;69.09
75051;BME280;63628;47.656;11.310;2023-05-10T03:58:51;94308.59;;;16.03;71.07
75051;BME280;63628;47.656;11.310;2023-05-10T04:01:18;94309.34;;;16.09;71.01
75051;BME280;63628;47.656;11.310;2023-05-10T04:03:46;94310.44;;;16.08;71.17
75051;BME280;63628;47.656;11.310;2023-05-10T04:06:13;94316.28;;;16.10;70.84
75051;BME280;63628;47.656;11.310;2023-05-10T04:08:40;94318.41;;;16.13;70.62
75051;BME280;63628;47.656;11.310;2023-05-10T04:11:07;94324.81;;;16.12;70.43
75051;BME280;63628;47.656;11.310;2023-05-10T04:13:34;94319.03;;;16.00;69.48
75051;BME280;63628;47.656;11.310;2023-05-10T04:16:00;94307.25;;;16.06;70.80
75051;BME280;63628;47.656;11.310;2023-05-10T04:18:27;94317.63;;;16.07;70.81
75051;BME280;63628;47.656;11.310;2023-05-10T04:20:55;94321.66;;;16.05;70.86
75051;BME280;63628;47.656;11.310;2023-05-10T04:23:22;94325.16;;;16.00;71.14
75051;BME280;63628;47.656;11.310;2023-05-10T04:25:48;94322.31;;;15.27;74.52
75051;BME280;63628;47.656;11.310;2023-05-10T04:28:15;94318.84;;;15.86;71.20
75051;BME280;63628;47.656;11.310;2023-05-10T04:30:42;94326.03;;;15.91;70.93
75051;BME280;63628;47.656;11.310;2023-05-10T04:33:08;94329.72;;;16.00;70.59
75051;BME280;63628;47.656;11.310;2023-05-10T04:35:35;94323.78;;;14.13;76.83
75051;BME280;63628;47.656;11.310;2023-05-10T04:38:03;94336.81;;;14.19;79.53
75051;BME280;63628;47.656;11.310;2023-05-10T04:40:30;94331.38;;;15.26;73.24
75051;BME280;63628;47.656;11.310;2023-05-10T04:42:56;94332.13;;;15.37;72.91
75051;BME280;63628;47.656;11.310;2023-05-10T04:45:23;94329.84;;;15.79;71.69
75051;BME280;63628;47.656;11.310;2023-05-10T04:47:49;94338.84;;;15.89;70.81
75051;BME280;63628;47.656;11.310;2023-05-10T04:50:16;94339.91;;;15.93;71.08
75051;BME280;63628;47.656;11.310;2023-05-10T04:52:44;94342.56;;;15.93;71.06
75051;BME280;63628;47.656;11.310;2023-05-10T04:55:11;94342.59;;;15.88;71.15
75051;BME280;63628;47.656;11.310;2023-05-10T04:57:38;94338.88;;;15.83;71.01
75051;BME280;63628;47.656;11.310;2023-05-10T05:00:06;94345.00;;;15.89;69.44
75051;BME280;63628;47.656;11.310;2023-05-10T05:02:33;94343.47;;;14.83;76.24
75051;BME280;63628;47.656;11.310;2023-05-10T05:05:00;94343.53;;;15.63;71.79
75051;BME280;63628;47.656;11.310;2023-05-10T05:07:26;94355.44;;;15.80;71.11
75051;BME280;63628;47.656;11.310;2023-05-10T05:09:53;94340.78;;;15.78;70.71
75051;BME280;63628;47.656;11.310;2023-05-10T05:12:21;94356.47;;;15.90;70.96
75051;BME280;63628;47.656;11.310;2023-05-10T05:14:48;94355.81;;;15.64;71.62
75051;BME280;63628;47.656;11.310;2023-05-10T05:17:14;94362.13;;;15.78;68.63
75051;BME280;63628;47.656;11.310;2023-05-10T05:19:41;94367.41;;;15.13;73.39
75051;BME280;63628;47.656;11.310;2023-05-10T05:22:08;94363.00;;;15.68;71.09
75051;BME280;63628;47.656;11.310;2023-05-10T05:24:35;94373.81;;;14.01;76.63
75051;BME280;63628;47.656;11.310;2023-05-10T05:27:02;94371.91;;;15.23;73.33
75051;BME280;63628;47.656;11.310;2023-05-10T05:29:30;94371.81;;;15.59;71.18
75051;BME280;63628;47.656;11.310;2023-05-10T05:31:57;94375.19;;;14.69;75.32
75051;BME280;63628;47.656;11.310;2023-05-10T05:34:24;94378.69;;;13.51;76.97
75051;BME280;63628;47.656;11.310;2023-05-10T05:36:51;94364.25;;;14.25;75.02
75051;BME280;63628;47.656;11.310;2023-05-10T05:39:18;94378.28;;;15.37;72.63
75051;BME280;63628;47.656;11.310;2023-05-10T05:41:45;94377.97;;;13.66;75.79
75051;BME280;63628;47.656;11.310;2023-05-10T05:44:12;94383.97;;;14.90;71.51
75051;BME280;63628;47.656;11.310;2023-05-10T05:46:40;94387.69;;;14.89;74.77
75051;BME280;63628;47.656;11.310;2023-05-10T05:49:07;94388.16;;;15.32;72.94
75051;BME280;63628;47.656;11.310;2023-05-10T05:51:33;94395.34;;;15.36;70.42
75051;BME280;63628;47.656;11.310;2023-05-10T05:54:01;94400.50;;;14.77;72.29
75051;BME280;63628;47.656;11.310;2023-05-10T05:56:30;94397.88;;;13.06;80.59
75051;BME280;63628;47.656;11.310;2023-05-10T05:58:57;94409.03;;;14.69;74.12
75051;BME280;63628;47.656;11.310;2023-05-10T06:01:23;94407.44;;;14.52;72.35
75051;BME280;63628;47.656;11.310;2023-05-10T06:03:51;94415.31;;;15.39;72.88
75051;BME280;63628;47.656;11.310;2023-05-10T06:06:19;94408.94;;;15.40;72.61
75051;BME280;63628;47.656;11.310;2023-05-10T06:08:45;94416.47;;;15.12;72.81
75051;BME280;63628;47.656;11.310;2023-05-10T06:11:12;94417.22;;;15.28;69.83
75051;BME280;63628;47.656;11.310;2023-05-10T06:13:38;94419.69;;;14.79;74.11
75051;BME280;63628;47.656;11.310;2023-05-10T06:16:06;94421.81;;;14.72;70.88
75051;BME280;63628;47.656;11.310;2023-05-10T06:18:33;94430.59;;;14.62;74.02
75051;BME280;63628;47.656;11.310;2023-05-10T06:21:01;94428.22;;;14.76;74.43
75051;BME280;63628;47.656;11.310;2023-05-10T06:23:27;94440.16;;;15.34;72.80
75051;BME280;63628;47.656;11.310;2023-05-10T06:25:54;94436.69;;;15.29;72.26
75051;BME280;63628;47.656;11.310;2023-05-10T06:28:21;94427.16;;;15.02;71.66
75051;BME280;63628;47.656;11.310;2023-05-10T06:30:48;94432.13;;;15.34;72.29
75051;BME280;63628;47.656;11.310;2023-05-10T06:33:14;94431.13;;;14.84;70.36
75051;BME280;63628;47.656;11.310;2023-05-10T06:35:42;94433.00;;;15.09;72.60
75051;BME280;63628;47.656;11.310;2023-05-10T06:38:10;94433.19;;;14.21;73.31
75051;BME280;63628;47.656;11.310;2023-05-10T06:40:37;94438.88;;;15.06;73.37
75051;BME280;63628;47.656;11.310;2023-05-10T06:43:07;94439.34;;;15.29;72.33
75051;BME280;63628;47.656;11.310;2023-05-10T06:45:33;94430.34;;;15.04;71.68
75051;BME280;63628;47.656;11.310;2023-05-10T06:48:00;94433.53;;;15.01;72.96
75051;BME280;63628;47.656;11.310;2023-05-10T06:50:27;94433.53;;;15.06;71.53
75051;BME280;63628;47.656;11.310;2023-05-10T06:52:56;94434.00;;;15.34;72.26
75051;BME280;63628;47.656;11.310;2023-05-10T06:55:24;94435.63;;;15.30;71.63
75051;BME280;63628;47.656;11.310;2023-05-10T06:57:51;94431.63;;;15.27;70.69
75051;BME280;63628;47.656;11.310;2023-05-10T07:00:18;94438.59;;;15.03;72.59
75051;BME280;63628;47.656;11.310;2023-05-10T07:02:46;94434.81;;;15.29;72.01
75051;BME280;63628;47.656;11.310;2023-05-10T07:05:13;94439.63;;;15.27;71.91
75051;BME280;63628;47.656;11.310;2023-05-10T07:07:40;94447.66;;;14.91;69.77
75051;BME280;63628;47.656;11.310;2023-05-10T07:10:08;94450.28;;;15.27;72.04
75051;BME280;63628;47.656;11.310;2023-05-10T07:12:36;94451.09;;;15.17;72.13
75051;BME280;63628;47.656;11.310;2023-05-10T07:15:05;94450.34;;;14.97;71.34
75051;BME280;63628;47.656;11.310;2023-05-10T07:17:32;94450.56;;;15.26;72.29
75051;BME280;63628;47.656;11.310;2023-05-10T07:20:00;94456.19;;;15.14;72.58
75051;BME280;63628;47.656;11.310;2023-05-10T07:22:26;94453.78;;;15.17;71.99
75051;BME280;63628;47.656;11.310;2023-05-10T07:24:56;94457.75;;;15.25;71.58
75051;BME280;63628;47.656;11.310;2023-05-10T07:27:22;94456.72;;;15.11;70.64
75051;BME280;63628;47.656;11.310;2023-05-10T07:29:50;94460.59;;;14.27;72.77
75051;BME280;63628;47.656;11.310;2023-05-10T07:32:17;94454.44;;;14.11;75.92
75051;BME280;63628;47.656;11.310;2023-05-10T07:34:44;94451.84;;;14.32;74.60
75051;BME280;63628;47.656;11.310;2023-05-10T07:37:11;94458.88;;;14.99;72.56
75051;BME280;63628;47.656;11.310;2023-05-10T07:39:38;94456.72;;;15.16;71.86
75051;BME280;63628;47.656;11.310;2023-05-10T07:42:04;94442.84;;;15.14;71.89
75051;BME280;63628;47.656;11.310;2023-05-10T07:44:32;94459.38;;;14.65;72.68
75051;BME280;63628;47.656;11.310;2023-05-10T07:47:00;94462.56;;;14.77;72.41
75051;BME280;63628;47.656;11.310;2023-05-10T07:49:26;94465.78;;;14.79;73.34
75051;BME280;63628;47.656;11.310;2023-05-10T07:51:53;94457.25;;;15.03;72.63
75051;BME280;63628;47.656;11.310;2023-05-10T07:54:20;94461.41;;;14.27;73.07
75051;BME280;63628;47.656;11.310;2023-05-10T07:56:46;94461.50;;;14.88;69.97
75051;BME280;63628;47.656;11.310;2023-05-10T07:59:15;94466.84;;;15.09;72.07
75051;BME280;63628;47.656;11.310;2023-05-10T08:01:43;94459.38;;;15.16;71.71
75051;BME280;63628;47.656;11.310;2023-05-10T08:04:11;94469.50;;;14.68;73.16
75051;BME280;63628;47.656;11.310;2023-05-10T08:06:38;94469.78;;;15.07;72.10
75051;BME280;63628;47.656;11.310;2023-05-10T08:09:05;94468.72;;;15.13;72.06
75051;BME280;63628;47.656;11.310;2023-05-10T08:11:32;94477.25;;;15.15;72.05
75051;BME280;63628;47.656;11.310;2023-05-10T08:14:01;94474.03;;;15.13;72.19
75051;BME280;63628;47.656;11.310;2023-05-10T08:16:27;94465.22;;;14.52;73.37
75051;BME280;63628;47.656;11.310;2023-05-10T08:18:55;94479.91;;;15.05;72.08
75051;BME280;63628;47.656;11.310;2023-05-10T08:21:23;94468.50;;;13.91;76.28
75051;BME280;63628;47.656;11.310;2023-05-10T08:23:52;94472.97;;;14.64;73.57
75051;BME280;63628;47.656;11.310;2023-05-10T08:26:19;94467.50;;;13.50;76.79
75051;BME280;63628;47.656;11.310;2023-05-10T08:28:47;94471.16;;;13.39;77.48
75051;BME280;63628;47.656;11.310;2023-05-10T08:31:14;94472.72;;;13.87;74.63
75051;BME280;63628;47.656;11.310;2023-05-10T08:33:41;94473.50;;;14.61;73.71
75051;BME280;63628;47.656;11.310;2023-05-10T08:36:10;94470.56;;;14.52;72.88
75051;BME280;63628;47.656;11.310;2023-05-10T08:38:38;94477.91;;;12.83;79.61
75051;BME280;63628;47.656;11.310;2023-05-10T08:41:05;94469.66;;;12.79;80.32
75051;BME280;63628;47.656;11.310;2023-05-10T08:43:32;94465.81;;;13.34;79.34
75051;BME280;63628;47.656;11.310;2023-05-10T08:46:02;94474.53;;;12.60;82.61
75051;BME280;63628;47.656;11.310;2023-05-10T08:48:34;94469.91;;;13.10;81.89
75051;BME280;63628;47.656;11.310;2023-05-10T08:51:02;94470.44;;;12.48;82.08
75051;BME280;63628;47.656;11.310;2023-05-10T08:53:31;94463.53;;;13.53;78.90
75051;BME280;63628;47.656;11.310;2023-05-10T08:56:01;94472.19;;;13.33;78.82
75051;BME280;63628;47.656;11.310;2023-05-10T08:58:28;94473.16;;;13.64;78.07
75051;BME280;63628;47.656;11.310;2023-05-10T09:00:55;94475.09;;;14.67;74.27
75051;BME280;63628;47.656;11.310;2023-05-10T09:03:23;94465.41;;;14.30;74.41
75051;BME280;63628;47.656;11.310;2023-05-10T09:05:50;94477.50;;;14.68;73.63
75051;BME280;63628;47.656;11.310;2023-05-10T09:08:17;94481.50;;;14.76;73.18
75051;BME280;63628;47.656;11.310;2023-05-10T09:10:44;94471.91;;;14.75;73.10
75051;BME280;63628;47.656;11.310;2023-05-10T09:13:15;94473.22;;;13.27;77.98
75051;BME280;63628;47.656;11.310;2023-05-10T09:15:43;94480.78;;;14.08;75.90
75051;BME280;63628;47.656;11.310;2023-05-10T09:18:10;94489.44;;;12.98;79.80
75051;BME280;63628;47.656;11.310;2023-05-10T09:20:37;94491.22;;;12.56;81.00
75051;BME280;63628;47.656;11.310;2023-05-10T09:23:04;94496.41;;;12.73;81.31
75051;BME280;63628;47.656;11.310;2023-05-10T09:25:31;94496.69;;;13.92;76.70
75051;BME280;63628;47.656;11.310;2023-05-10T09:27:59;94496.13;;;14.63;74.50
75051;BME280;63628;47.656;11.310;2023-05-10T09:30:29;94493.75;;;14.77;74.01
75051;BME280;63628;47.656;11.310;2023-05-10T09:32:56;94486.00;;;14.75;73.20
75051;BME280;63628;47.656;11.310;2023-05-10T09:35:26;94484.69;;;14.73;73.63
75051;BME280;63628;47.656;11.310;2023-05-10T09:37:57;94483.09;;;14.87;73.29
75051;BME280;63628;47.656;11.310;2023-05-10T09:40:25;94485.50;;;14.83;73.29
75051;BME280;63628;47.656;11.310;2023-05-10T09:42:54;94487.34;;;14.88;73.10
75051;BME280;63628;47.656;11.310;2023-05-10T09:45:22;94486.44;;;13.17;78.64
75051;BME280;63628;47.656;11.310;2023-05-10T09:47:50;94496.66;;;13.35;79.56
75051;BME280;63628;47.656;11.310;2023-05-10T09:50:17;94493.88;;;12.56;82.08
75051;BME280;63628;47.656;11.310;2023-05-10T09:52:50;94493.78;;;11.75;83.82
75051;BME280;63628;47.656;11.310;2023-05-10T09:55:19;94483.34;;;12.66;83.30
75051;BME280;63628;47.656;11.310;2023-05-10T09:57:46;94488.88;;;14.38;75.61
75051;BME280;63628;47.656;11.310;2023-05-10T10:00:18;94489.22;;;14.62;73.68
75051;BME280;63628;47.656;11.310;2023-05-10T10:02:46;94490.28;;;14.71;74.21
75051;BME280;63628;47.656;11.310;2023-05-10T10:05:15;94491.59;;;14.69;73.49
75051;BME280;63628;47.656;11.310;2023-05-10T10:07:42;94492.41;;;14.59;73.49
75051;BME280;63628;47.656;11.310;2023-05-10T10:10:09;94489.44;;;14.45;74.01
75051;BME280;63628;47.656;11.310;2023-05-10T10:12:39;94491.88;;;12.68;79.97
75051;BME280;63628;47.656;11.310;2023-05-10T10:15:08;94490.88;;;13.48;78.33
75051;BME280;63628;47.656;11.310;2023-05-10T10:17:36;94487.75;;;14.29;75.04
75051;BME280;63628;47.656;11.310;2023-05-10T10:20:04;94490.53;;;14.59;73.83
75051;BME280;63628;47.656;11.310;2023-05-10T10:22:32;94500.94;;;14.66;73.69
75051;BME280;63628;47.656;11.310;2023-05-10T10:24:59;94499.88;;;14.67;73.79
75051;BME280;63628;47.656;11.310;2023-05-10T10:27:35;94493.47;;;14.63;73.24
75051;BME280;63628;47.656;11.310;2023-05-10T10:30:13;94502.25;;;14.69;73.37
75051;BME280;63628;47.656;11.310;2023-05-10T10:32:57;94498.53;;;14.70;73.82
75051;BME280;63628;47.656;11.310;2023-05-10T10:35:43;94501.19;;;14.70;73.33
75051;BME280;63628;47.656;11.310;2023-05-10T10:38:12;94491.88;;;14.77;73.47
75051;BME280;63628;47.656;11.310;2023-05-10T10:40:39;94500.56;;;14.32;73.60
75051;BME280;63628;47.656;11.310;2023-05-10T10:43:23;94498.81;;;14.68;73.42
75051;BME280;63628;47.656;11.310;2023-05-10T10:46:10;94492.16;;;14.76;73.59
75051;BME280;63628;47.656;11.310;2023-05-10T10:48:38;94495.88;;;14.85;73.19
75051;BME280;63628;47.656;11.310;2023-05-10T10:51:05;94494.81;;;14.81;73.09
75051;BME280;63628;47.656;11.310;2023-05-10T10:53:33;94492.16;;;14.76;73.57
75051;BME280;63628;47.656;11.310;2023-05-10T10:56:07;94502.53;;;14.77;73.46
75051;BME280;63628;47.656;11.310;2023-05-10T10:58:36;94499.28;;;13.72;75.31
75051;BME280;63628;47.656;11.310;2023-05-10T11:01:14;94485.44;;;14.43;74.62
75051;BME280;63628;47.656;11.310;2023-05-10T11:03:55;94491.03;;;14.46;73.01
75051;BME280;63628;47.656;11.310;2023-05-10T11:06:41;94488.94;;;14.69;73.15
75051;BME280;63628;47.656;11.310;2023-05-10T11:09:11;94484.06;;;14.35;75.33
75051;BME280;63628;47.656;11.310;2023-05-10T11:11:48;94492.06;;;13.68;75.66
75051;BME280;63628;47.656;11.310;2023-05-10T11:14:20;94495.19;;;14.17;75.84
75051;BME280;63628;47.656;11.310;2023-05-10T11:16:48;94498.81;;;14.68;73.96
75051;BME280;63628;47.656;11.310;2023-05-10T11:19:16;94497.75;;;14.74;73.24
75051;BME280;63628;47.656;11.310;2023-05-10T11:21:46;94496.66;;;14.70;73.48
75051;BME280;63628;47.656;11.310;2023-05-10T11:24:17;94492.41;;;14.74;73.01
75051;BME280;63628;47.656;11.310;2023-05-10T11:26:44;94494.00;;;14.75;73.28
75051;BME280;63628;47.656;11.310;2023-05-10T11:29:12;94489.75;;;14.69;73.36
75051;BME280;63628;47.656;11.310;2023-05-10T11:31:42;94500.13;;;14.71;73.63
75051;BME280;63628;47.656;11.310;2023-05-10T11:34:10;94506.63;;;14.17;76.12
75051;BME280;63628;47.656;11.310;2023-05-10T11:36:37;94505.09;;;14.37;74.81
75051;BME280;63628;47.656;11.310;2023-05-10T11:39:04;94509.34;;;14.33;76.49
75051;BME280;63628;47.656;11.310;2023-05-10T11:41:32;94511.56;;;14.46;74.89
75051;BME280;63628;47.656;11.310;2023-05-10T11:43:59;94504.13;;;14.68;73.73
75051;BME280;63628;47.656;11.310;2023-05-10T11:46:27;94506.25;;;14.76;73.22
75051;BME280;63628;47.656;11.310;2023-05-10T11:48:57;94506.25;;;14.76;73.50
75051;BME280;63628;47.656;11.310;2023-05-10T11:51:24;94508.41;;;14.74;73.25
75051;BME280;63628;47.656;11.310;2023-05-10T11:53:53;94516.03;;;14.35;74.82
75051;BME280;63628;47.656;11.310;2023-05-10T11:56:20;94506.78;;;14.63;74.41
75051;BME280;63628;47.656;11.310;2023-05-10T11:58:54;94511.31;;;14.73;73.90
75051;BME280;63628;47.656;11.310;2023-05-10T12:01:23;94484.94;;;14.61;73.40
75051;BME280;63628;47.656;11.310;2023-05-10T12:03:50;94501.47;;;14.68;73.28
75051;BME280;63628;47.656;11.310;2023-05-10T12:06:18;94518.91;;;13.66;74.97
75051;BME280;63628;47.656;11.310;2023-05-10T12:08:47;94518.78;;;12.82;77.84
75051;BME280;63628;47.656;11.310;2023-05-10T12:11:14;94507.13;;;13.15;79.57
75051;BME280;63628;47.656;11.310;2023-05-10T12:13:43;94510.53;;;13.10;79.67
75051;BME280;63628;47.656;11.310;2023-05-10T12:16:15;94513.31;;;14.30;75.08
75051;BME280;63628;47.656;11.310;2023-05-10T12:18:42;94522.34;;;14.19;75.31
75051;BME280;63628;47.656;11.310;2023-05-10T12:21:10;94516.91;;;13.93;74.30
75051;BME280;63628;47.656;11.310;2023-05-10T12:23:37;94519.09;;;14.02;76.42
75051;BME280;63628;47.656;11.310;2023-05-10T12:26:04;94514.63;;;14.27;73.87
75051;BME280;63628;47.656;11.310;2023-05-10T12:28:31;94525.59;;;13.69;75.88
75051;BME280;63628;47.656;11.310;2023-05-10T12:30:59;94523.28;;;14.55;74.18
75051;BME280;63628;47.656;11.310;2023-05-10T12:33:27;94538.75;;;14.68;74.15
75051;BME280;63628;47.656;11.310;2023-05-10T12:36:02;94543.28;;;14.73;73.79
75051;BME280;63628;47.656;11.310;2023-05-10T12:38:31;94541.16;;;14.70;73.48
75051;BME280;63628;47.656;11.310;2023-05-10T12:41:00;94552.59;;;14.70;73.72
75051;BME280;63628;47.656;11.310;2023-05-10T12:43:27;94555.03;;;13.62;78.28
75051;BME280;63628;47.656;11.310;2023-05-10T12:45:54;94555.25;;;13.55;76.65
75051;BME280;63628;47.656;11.310;2023-05-10T12:48:21;94553.47;;;14.18;72.97
75051;BME280;63628;47.656;11.310;2023-05-10T12:50:49;94553.72;;;14.17;74.50
75051;BME280;63628;47.656;11.310;2023-05-10T12:53:16;94553.09;;;14.52;74.11
75051;BME280;63628;47.656;11.310;2023-05-10T12:55:42;94548.59;;;14.57;73.99
75051;BME280;63628;47.656;11.310;2023-05-10T12:58:09;94549.66;;;14.67;73.54
75051;BME280;63628;47.656;11.310;2023-05-10T13:00:39;94546.75;;;14.78;74.06
75051;BME280;63628;47.656;11.310;2023-05-10T13:03:06;94547.28;;;14.70;73.89